Nearby METAR Reports

 

KGEU - Glendale, Arizona, USA
Distance from station: S 3mi, 4km
Updated: Thu, 23-May-2019 6:50am MST
Few Clouds
Few Clouds
 Wind from NE
Wind: NE 7 mph , 11 km/h
Temperature: 57°F , 14°C
Dew Point: 52°F , 11°C
Humidity: 82%
Barometer: 29.90 inHg , 1012.5 hPa
Clouds: Few Clouds
Visibility: 10 miles , 16 km
Cloud details: Few Clouds 16000 ft
2019/05/23 13:50 KGEU 231350Z 04006KT 10SM FEW160 14/11 A2990
KLUF - Luke Afb/Glendal, Arizona, USA
Distance from station: SW 5mi, 8km
Updated: Thu, 23-May-2019 6:58am MST
Clear
Clear
 Wind from SE
Wind: SE 3 mph , 6 km/h
Temperature: 57°F , 14°C
Dew Point: 48°F , 9°C
Humidity: 72%
Barometer: 29.87 inHg , 1011.5 hPa
Clouds: Clear
Visibility: 10 miles , 16 km
2019/05/23 13:58 KLUF 231358Z AUTO 14003KT 10SM CLR 14/09 A2987 RMK AO2 SLP109 T01440086 $
 
KGYR - Goodyear Municip, Arizona, USA
Distance from station: SSW 11mi, 18km
Updated: Thu, 23-May-2019 6:47am MST
Partly cloudy
Partly cloudy
 Wind from SSE
Wind: SSE 10 mph , 17 km/h
Temperature: 57°F , 14°C
Dew Point: 45°F , 7°C
Humidity: 63%
Barometer: 29.88 inHg , 1011.9 hPa
Clouds: Partly cloudy
Visibility: 10 miles , 16 km
Cloud details: Partly cloudy 8000 ft
Partly cloudy 18000 ft
2019/05/23 13:47 KGYR 231347Z 16009KT 10SM SCT080 SCT180 14/07 A2988
KDVT - Phoenix/Deer Vly, Arizona, USA
Distance from station: ENE 16mi, 26km
Updated: Thu, 23-May-2019 6:53am MST
Clear
Clear
 Wind from ESE
Wind: ESE 8 mph , 13 km/h
Temperature: 54°F , 12°C
Dew Point: 46°F , 8°C
Humidity: 77%
Barometer: 29.89 inHg , 1012.2 hPa
Clouds: Clear
Visibility: 10 miles , 16 km
2019/05/23 13:53 KDVT 231353Z 12007KT 10SM CLR 12/08 A2989 RMK AO2 SLP108 T01220078
 
KPHX - Phoenix/Sky Hrbr, Arizona, USA
Distance from station: ESE 19mi, 31km
Updated: Thu, 23-May-2019 6:51am MST
Partly cloudy
Partly cloudy
 Wind from SE
Wind: SE 7 mph , 11 km/h
Temperature: 55°F , 13°C
Dew Point: 50°F , 10°C
Humidity: 82%
Barometer: 29.87 inHg , 1011.5 hPa
Clouds: Partly cloudy
Visibility: 10 miles , 16 km
Cloud details: Few Clouds 5000 ft
Few Clouds 8000 ft
Partly cloudy 14000 ft
2019/05/23 13:51 KPHX 231351Z 14006KT 10SM FEW050 FEW080 SCT140 13/10 A2987 RMK AO2 SLP105 T01330100
KSDL - Scottsdale, Arizona, USA
Distance from station: E 23mi, 37km
Updated: Thu, 23-May-2019 6:53am MST
Clear
Clear
 Wind from varies
Wind: varies 3 mph , 6 km/h
Temperature: 55°F , 13°C
Dew Point: 46°F , 8°C
Humidity: 72%
Barometer: 29.90 inHg , 1012.5 hPa
Clouds: Clear
Visibility: 10 miles , 16 km
2019/05/23 13:53 KSDL 231353Z VRB03KT 10SM CLR 13/08 A2990 RMK AO2 SLP111 T01280083
 
KBXK - Buckeye, Arizona, USA
Distance from station: WSW 24mi, 39km
Updated: Thu, 23-May-2019 6:55am MST
Clear
Clear
 Wind from S
Wind: S 8 mph , 13 km/h
Temperature: 55°F , 13°C
Dew Point: 43°F , 6°C
Humidity: 63%
Barometer: 29.90 inHg , 1012.5 hPa
Clouds: Clear
Visibility: 10 miles , 16 km
2019/05/23 13:55 KBXK 231355Z AUTO 17007KT 10SM CLR 13/06 A2990 RMK AO1
KFFZ - Mesa/Falcon Fld, Arizona, USA
Distance from station: E 35mi, 56km
Updated: Thu, 23-May-2019 6:54am MST
Partly cloudy
Partly cloudy
 Wind from SE
Wind: SE 5 mph , 7 km/h
Temperature: 55°F , 13°C
Dew Point: 48°F , 9°C
Humidity: 77%
Barometer: 29.90 inHg , 1012.5 hPa
Clouds: Partly cloudy
Visibility: 10 miles , 16 km
Cloud details: Partly cloudy 7000 ft
2019/05/23 13:54 KFFZ 231354Z 13004KT 10SM SCT070 13/09 A2990 RMK AO2 RAE00 SLP108 P0000 T01330089
 
KIWA - Chandler/Mesa, Arizona, USA
Distance from station: ESE 42mi, 68km
Updated: Thu, 23-May-2019 6:47am MST
Partly cloudy
Partly cloudy
 Wind from SE
Wind: SE 10 mph , 17 km/h
Temperature: 55°F , 13°C
Dew Point: 50°F , 10°C
Humidity: 82%
Barometer: 29.91 inHg , 1012.9 hPa
Clouds: Partly cloudy
Visibility: 45 miles , 72 km
Cloud details: Partly cloudy 8000 ft
2019/05/23 13:47 KIWA 231347Z 13009KT 45SM SCT080 13/10 A2991
KCGZ - Casa Granda, Arizona, USA
Distance from station: SE 53mi, 85km
Updated: Thu, 23-May-2019 6:56am MST
Clear
Clear
 Wind from SE
Wind: SE 7 mph , 11 km/h
Temperature: 57°F , 14°C
Dew Point: 48°F , 9°C
Humidity: 72%
Barometer: 29.92 inHg , 1013.2 hPa
Clouds: Clear
Visibility: 10 miles , 16 km
2019/05/23 13:56 KCGZ 231356Z AUTO 13006KT 10SM CLR 14/09 A2992 RMK AO2 SLP125 T01390089 $
 
KGXF - Gila Bend (aaf), Arizona, USA
Distance from station: SSW 54mi, 87km
Updated: Thu, 23-May-2019 6:58am MST
Clear
Clear
 Wind from SSW
Wind: SSW 9 mph , 15 km/h
Temperature: 59°F , 15°C
Dew Point: 37°F , 3°C
Humidity: 45%
Barometer: 29.89 inHg , 1012.2 hPa
Clouds: Clear
Visibility: 7 miles , 11 km
2019/05/23 13:58 KGXF 231358Z AUTO 21008KT 7SM CLR 15/03 A2989 RMK AO2 SLP114 T01530031
KPAN - Payson, Arizona, USA
Distance from station: NE 73mi, 117km
Updated: Thu, 23-May-2019 6:55am MST
Overcast
Overcast
 Wind from E
Wind: E 5 mph , 7 km/h
Temperature: 36°F , 2°C
Wind Chill: 32°F , 0°C
Dew Point: 34°F , 1°C
Humidity: 93%
Barometer: 29.92 inHg , 1013.2 hPa
Clouds: Overcast
Visibility: 8 miles , 13 km
Cloud details: Partly cloudy 300 ft
Mostly cloudy 3000 ft
Overcast 3600 ft
2019/05/23 13:55 KPAN 231355Z AUTO 08004KT 8SM SCT003 BKN030 OVC036 02/01 A2992 RMK AO2
 
KPRC - Prescott, Arizona, USA
Distance from station: N 75mi, 121km
Updated: Thu, 23-May-2019 7:00am MST
Light rain, Overcast
Light rain, Overcast
 Wind from SE
Wind: SE 7 mph , 11 km/h
Temperature: 39°F , 4°C
Wind Chill: 34°F , 1°C
Dew Point: 37°F , 3°C
Humidity: 93%
Barometer: 29.87 inHg , 1011.5 hPa
Summary: Light rain
Clouds: Overcast
Visibility: 10 miles , 16 km
Cloud details: Few Clouds 600 ft
Partly cloudy 1500 ft
Overcast 2400 ft
2019/05/23 14:00 KPRC 231400Z 14006KT 10SM -RA FEW006 SCT015 OVC024 04/03 A2987 RMK AO2 RAB1354 MTN OBSCN P0000 T00440028
KSEZ - Sedona, Arizona, USA
Distance from station: NNE 93mi, 150km
Updated: Wed, 22-May-2019 5:55pm MST
NOT Current
Overcast
Overcast
 Wind from S
Wind: S 18 mph , 30 km/h, Gust: 29 mph , 46 km/h
Temperature: 55°F , 13°C
Dew Point: 30°F , -1°C
Humidity: 38%
Barometer: 29.73 inHg , 1006.8 hPa
Clouds: Overcast
Visibility: 10 miles , 16 km
Cloud details: Mostly cloudy 6500 ft
Overcast 8000 ft
2019/05/23 00:55 KSEZ 230055Z AUTO 17016G25KT 10SM BKN065 OVC080 13/M01 A2973 RMK AO2
 
KFLG - Flagstaff, Arizona, USA
Distance from station: NNE 114mi, 184km
Updated: Thu, 23-May-2019 7:02am MST
Overcast
Overcast
 Wind from SW
Wind: SW 10 mph , 17 km/h
Temperature: 30°F , -1°C
Wind Chill: 21°F , -6°C
Dew Point: 28°F , -2°C
Humidity: 93%
Barometer: 29.86 inHg , 1011.2 hPa
Clouds: Overcast
Visibility: 10 miles , 16 km
Cloud details: Mostly cloudy 800 ft
Overcast 1300 ft
2019/05/23 14:02 KFLG 231402Z 23009KT 10SM BKN008 OVC013 M01/M02 A2986 RMK AO2 CIG 006V011 T10111022
KRYN - Tucson/Ryan Fld, Arizona, USA
Distance from station: SE 118mi, 190km
Updated: Wed, 22-May-2019 7:45pm MST
NOT Current
Clear
Clear
 Wind from W
Wind: W 14 mph , 22 km/h
Temperature: 68°F , 20°C
Dew Point: 34°F , 1°C
Humidity: 28%
Barometer: 29.71 inHg , 1006.1 hPa
Clouds: Clear
Visibility: 10 miles , 16 km
2019/05/23 02:45 KRYN 230245Z 26012KT 10SM CLR 20/01 A2971 RMK LAST
 
KTUS - Tucson, Arizona, USA
Distance from station: SE 127mi, 204km
Updated: Thu, 23-May-2019 6:53am MST
Mostly cloudy
Mostly cloudy
 Wind from S
Wind: S 9 mph , 15 km/h
Temperature: 57°F , 14°C
Dew Point: 37°F , 3°C
Humidity: 48%
Barometer: 29.95 inHg , 1014.2 hPa
Clouds: Mostly cloudy
Visibility: 10 miles , 16 km
Cloud details: Mostly cloudy 9000 ft
2019/05/23 13:53 KTUS 231353Z 19008KT 10SM BKN090 14/03 A2995 RMK AO2 SLP112 T01390028
KDMA - Davis/Tucson, Arizona, USA
Distance from station: SE 128mi, 206km
Updated: Thu, 23-May-2019 6:58am MST
Partly cloudy
Partly cloudy
 Wind from SW
Wind: SW 13 mph , 20 km/h, Gust: 21 mph , 33 km/h
Temperature: 57°F , 14°C
Dew Point: 39°F , 4°C
Humidity: 51%
Barometer: 29.94 inHg , 1013.9 hPa
Clouds: Partly cloudy
Visibility: 10 miles , 16 km
Cloud details: Partly cloudy 6000 ft
2019/05/23 13:58 KDMA 231358Z AUTO 23011G18KT 10SM SCT060 14/04 A2994 RMK AO2 SLP110 T01390036 $
 
KINW - Winslow, Arizona, USA
Distance from station: NE 136mi, 219km
Updated: Thu, 23-May-2019 6:56am MST
Overcast
Overcast
 Wind from SW
Wind: SW 17 mph , 28 km/h
Temperature: 43°F , 6°C
Wind Chill: 35°F , 2°C
Dew Point: 36°F , 2°C
Humidity: 76%
Barometer: 29.87 inHg , 1011.5 hPa
Clouds: Overcast
Visibility: 10 miles , 16 km
Cloud details: Few Clouds 4200 ft
Mostly cloudy 5500 ft
Overcast 7000 ft
2019/05/23 13:56 KINW 231356Z AUTO 22015KT 10SM FEW042 BKN055 OVC070 06/02 A2987 RMK AO2 PK WND 21026/1319 WSHFT 1317 RAB22E31 SLP089 P0000 T00560017
KHII - Lake Havasu City, Arizona, USA
Distance from station: WNW 136mi, 220km
Updated: Thu, 23-May-2019 6:55am MST
Clear
Clear
 Wind from SE
Wind: SE 9 mph , 15 km/h
Temperature: 59°F , 15°C
Dew Point: 43°F , 6°C
Humidity: 55%
Barometer: 29.82 inHg , 1009.8 hPa
Clouds: Clear
Visibility: 10 miles , 16 km
2019/05/23 13:55 KHII 231355Z AUTO 13008KT 10SM CLR 15/06 A2982 RMK AO2